Time;durP1;ratioP1;P1;durP2;ratioP2;P2;SDS_P1;SDS_P2;PMS_P1;PMS_P2;Temp;Humidity;BMP_temperature;BMP_pressure;BME280_temperature;BME280_humidity;BME280_pressure;Samples;Min_cycle;Max_cycle;Signal;HPM_P1;HPM_P2
2023/02/16 00:08:43;;;;;;;11.02;4.50;;;;;;;;;;21079439;28;20408;-67
2023/02/16 00:18:45;;;;;;;8.85;4.68;;;;;;;;;;21060528;28;20055;-68
2023/02/16 00:28:57;;;;;;;9.52;5.10;;;;;;;;;;21094815;28;20098;-68
2023/02/16 00:38:59;;;;;;;10.20;4.90;;;;;;;;;;21094866;28;20052;-68
2023/02/16 00:49:01;;;;;;;10.00;5.53;;;;;;;;;;21095032;28;20139;-68
2023/02/16 00:59:04;;;;;;;8.57;4.80;;;;;;;;;;21093620;28;20044;-69
2023/02/16 01:19:34;;;;;;;8.77;4.70;;;;;;;;;;21091860;28;20401;-67
2023/02/16 01:29:36;;;;;;;7.40;4.25;;;;;;;;;;21091059;28;20401;-68
2023/02/16 01:39:38;;;;;;;10.32;4.22;;;;;;;;;;21087868;28;20516;-68
2023/02/16 01:49:40;;;;;;;6.90;4.20;;;;;;;;;;21089864;28;20048;-68
2023/02/16 01:59:48;;;;;;;8.63;4.43;;;;;;;;;;21088550;28;20047;-68
2023/02/16 02:09:57;;;;;;;11.00;4.72;;;;;;;;;;21088173;28;20112;-66
2023/02/16 02:20:17;;;;;;;10.07;4.97;;;;;;;;;;21085711;28;20094;-68
2023/02/16 02:30:22;;;;;;;8.73;5.13;;;;;;;;;;21086031;28;20505;-68
2023/02/16 02:40:31;;;;;;;9.13;5.00;;;;;;;;;;21084405;28;20541;-68
2023/02/16 03:01:20;;;;;;;10.13;5.03;;;;;;;;;;20743975;28;20054;-68
2023/02/16 03:32:11;;;;;;;11.30;4.97;;;;;;;;;;20845300;28;20044;-68
2023/02/16 03:42:14;;;;;;;9.77;5.07;;;;;;;;;;21079911;28;20098;-68
2023/02/16 03:52:16;;;;;;;8.48;5.10;;;;;;;;;;21080219;28;20043;-68
2023/02/16 04:02:19;;;;;;;9.40;4.75;;;;;;;;;;21077780;28;20090;-68
2023/02/16 04:12:36;;;;;;;9.40;5.57;;;;;;;;;;21079498;28;20052;-68
2023/02/16 04:22:38;;;;;;;6.82;4.80;;;;;;;;;;21079374;28;20494;-68
2023/02/16 04:32:41;;;;;;;8.85;4.80;;;;;;;;;;21078625;28;20055;-68
2023/02/16 04:42:43;;;;;;;9.13;5.15;;;;;;;;;;21029272;28;20056;-67
2023/02/16 04:52:45;;;;;;;7.20;4.60;;;;;;;;;;20993068;28;20119;-67
2023/02/16 05:02:47;;;;;;;9.15;5.25;;;;;;;;;;20994296;28;20082;-68
2023/02/16 05:23:10;;;;;;;9.13;5.18;;;;;;;;;;21007257;28;20517;-68
2023/02/16 05:33:12;;;;;;;9.88;5.40;;;;;;;;;;21005533;28;20048;-67
2023/02/16 05:43:14;;;;;;;8.15;4.80;;;;;;;;;;21004529;28;20151;-67
2023/02/16 05:53:16;;;;;;;7.47;4.75;;;;;;;;;;21005128;28;20459;-67
2023/02/16 06:03:18;;;;;;;7.90;4.45;;;;;;;;;;21004370;28;20076;-69
2023/02/16 06:13:20;;;;;;;8.43;4.38;;;;;;;;;;21004947;28;20067;-67
2023/02/16 06:23:22;;;;;;;7.53;4.22;;;;;;;;;;21003636;28;20126;-67
2023/02/16 06:33:24;;;;;;;10.13;4.97;;;;;;;;;;21000281;28;20052;-67
2023/02/16 06:43:26;;;;;;;8.48;4.72;;;;;;;;;;21000970;28;20099;-68
2023/02/16 06:53:28;;;;;;;11.57;4.53;;;;;;;;;;21001127;28;20052;-69
2023/02/16 07:03:30;;;;;;;13.35;4.78;;;;;;;;;;21000997;28;20457;-67
2023/02/16 07:13:35;;;;;;;12.73;5.20;;;;;;;;;;20998395;28;20053;-69
2023/02/16 07:23:37;;;;;;;9.07;4.72;;;;;;;;;;20997984;28;20049;-68
2023/02/16 07:33:39;;;;;;;10.38;4.90;;;;;;;;;;20996576;28;20044;-68
2023/02/16 07:43:41;;;;;;;8.30;4.57;;;;;;;;;;21052033;28;20246;-68
2023/02/16 07:53:43;;;;;;;6.75;4.18;;;;;;;;;;21080390;28;20521;-67
2023/02/16 08:03:45;;;;;;;10.15;5.45;;;;;;;;;;21080031;28;20052;-68
2023/02/16 08:13:48;;;;;;;12.57;5.32;;;;;;;;;;21079888;28;20052;-68
2023/02/16 08:23:53;;;;;;;15.15;5.55;;;;;;;;;;21079818;28;20051;-68
2023/02/16 08:33:56;;;;;;;13.68;6.68;;;;;;;;;;21079331;28;20079;-67
2023/02/16 08:43:59;;;;;;;11.27;5.13;;;;;;;;;;21084578;28;20052;-68
2023/02/16 08:54:02;;;;;;;17.85;6.70;;;;;;;;;;21093933;28;20079;-67
2023/02/16 09:04:05;;;;;;;15.65;5.32;;;;;;;;;;21092068;28;20101;-67
2023/02/16 09:14:08;;;;;;;14.35;5.60;;;;;;;;;;21092770;28;20401;-67
2023/02/16 09:24:10;;;;;;;12.18;5.05;;;;;;;;;;21093315;28;20048;-67
2023/02/16 09:34:17;;;;;;;10.55;5.35;;;;;;;;;;21091333;28;20402;-67
2023/02/16 09:44:22;;;;;;;9.27;4.30;;;;;;;;;;21088654;28;20223;-69
2023/02/16 09:54:33;;;;;;;10.75;4.95;;;;;;;;;;21088214;28;20465;-67
2023/02/16 10:04:55;;;;;;;9.10;3.70;;;;;;;;;;21088699;28;20055;-68
2023/02/16 10:15:03;;;;;;;8.43;2.72;;;;;;;;;;21086051;28;20048;-66
2023/02/16 10:25:12;;;;;;;9.27;4.70;;;;;;;;;;21085298;28;20105;-67
2023/02/16 10:35:19;;;;;;;5.63;3.15;;;;;;;;;;21085849;28;20108;-64
2023/02/16 10:45:43;;;;;;;10.05;3.35;;;;;;;;;;21084774;28;20056;-66
2023/02/16 10:55:45;;;;;;;9.10;3.60;;;;;;;;;;21065775;28;20052;-65
2023/02/16 11:05:47;;;;;;;5.72;3.40;;;;;;;;;;21083152;28;20482;-68
2023/02/16 11:15:53;;;;;;;7.85;4.20;;;;;;;;;;21076327;28;20422;-73
2023/02/16 11:25:56;;;;;;;8.38;3.78;;;;;;;;;;21021699;28;20479;-75
2023/02/16 11:35:58;;;;;;;7.80;5.38;;;;;;;;;;20997263;28;20410;-64
2023/02/16 11:46:03;;;;;;;8.35;3.78;;;;;;;;;;21052136;28;20095;-64
2023/02/16 11:56:21;;;;;;;10.90;4.45;;;;;;;;;;21077388;28;20094;-64
2023/02/16 12:06:30;;;;;;;8.20;4.88;;;;;;;;;;21078197;28;20077;-62
2023/02/16 12:16:43;;;;;;;7.95;3.72;;;;;;;;;;21082715;28;20131;-64
2023/02/16 12:26:54;;;;;;;8.52;3.92;;;;;;;;;;21095086;28;20054;-63
2023/02/16 12:36:56;;;;;;;6.53;3.88;;;;;;;;;;21096747;28;20135;-72
2023/02/16 12:47:03;;;;;;;7.70;2.80;;;;;;;;;;21006934;28;20151;-71
2023/02/16 12:57:25;;;;;;;8.98;2.88;;;;;;;;;;21010140;28;20053;-72
2023/02/16 13:07:33;;;;;;;9.55;4.53;;;;;;;;;;21007862;28;20044;-69
2023/02/16 13:17:41;;;;;;;14.63;3.60;;;;;;;;;;21007214;28;20139;-73
2023/02/16 13:27:57;;;;;;;5.78;2.92;;;;;;;;;;21006174;28;20452;-62
2023/02/16 13:38:04;;;;;;;6.25;2.95;;;;;;;;;;20995142;28;20094;-61
2023/02/16 13:48:16;;;;;;;8.20;3.30;;;;;;;;;;21089454;28;20052;-62
2023/02/16 13:58:29;;;;;;;5.78;3.60;;;;;;;;;;21087543;28;20048;-61
2023/02/16 14:08:31;;;;;;;5.35;3.30;;;;;;;;;;21087655;28;20597;-61
2023/02/16 14:18:47;;;;;;;5.35;2.92;;;;;;;;;;21069152;28;20109;-61
2023/02/16 14:29:08;;;;;;;4.25;2.40;;;;;;;;;;21084480;28;20052;-61
2023/02/16 14:39:11;;;;;;;4.43;2.80;;;;;;;;;;21084547;28;20075;-62
2023/02/16 14:49:32;;;;;;;6.43;2.90;;;;;;;;;;21085761;28;20079;-61
2023/02/16 14:59:38;;;;;;;6.65;3.17;;;;;;;;;;21085086;28;20044;-62
2023/02/16 15:09:41;;;;;;;10.98;4.45;;;;;;;;;;21081555;28;20058;-61
2023/02/16 15:19:43;;;;;;;7.00;3.13;;;;;;;;;;21081638;28;20047;-62
2023/02/16 15:29:46;;;;;;;5.15;3.58;;;;;;;;;;21080864;28;20040;-61
2023/02/16 15:39:48;;;;;;;7.70;3.60;;;;;;;;;;21079603;28;20056;-61
2023/02/16 15:49:52;;;;;;;6.07;3.45;;;;;;;;;;21080757;28;20079;-62
2023/02/16 15:59:57;;;;;;;6.13;3.63;;;;;;;;;;21080579;28;20176;-62
2023/02/16 16:09:59;;;;;;;8.77;4.78;;;;;;;;;;21079796;28;20048;-62
2023/02/16 16:20:18;;;;;;;6.25;3.45;;;;;;;;;;21079181;28;20075;-61
2023/02/16 16:30:20;;;;;;;6.22;3.50;;;;;;;;;;21078832;28;20044;-61
2023/02/16 16:40:25;;;;;;;9.05;3.30;;;;;;;;;;21077471;28;20052;-61
2023/02/16 16:50:29;;;;;;;9.02;3.40;;;;;;;;;;21078056;28;20387;-61
2023/02/16 17:00:33;;;;;;;5.45;3.00;;;;;;;;;;21077715;28;20047;-61
2023/02/16 17:10:36;;;;;;;5.07;2.90;;;;;;;;;;21090938;28;20048;-60
2023/02/16 17:20:38;;;;;;;6.13;2.50;;;;;;;;;;21090316;28;20091;-61
2023/02/16 17:30:41;;;;;;;4.43;2.72;;;;;;;;;;21090603;28;20047;-61
2023/02/16 17:40:43;;;;;;;6.00;2.80;;;;;;;;;;21089019;28;20477;-61
2023/02/16 17:50:45;;;;;;;9.25;4.10;;;;;;;;;;21089684;28;20406;-61
2023/02/16 18:00:47;;;;;;;10.80;3.72;;;;;;;;;;21087397;28;20047;-62
2023/02/16 18:10:50;;;;;;;9.60;4.65;;;;;;;;;;21086634;28;20044;-60
2023/02/16 18:20:53;;;;;;;7.47;4.35;;;;;;;;;;21086557;28;20044;-61
2023/02/16 18:30:56;;;;;;;9.80;5.15;;;;;;;;;;21086088;28;20044;-62
2023/02/16 18:40:58;;;;;;;8.32;4.50;;;;;;;;;;21083283;28;20056;-62
2023/02/16 18:51:07;;;;;;;17.95;8.32;;;;;;;;;;21085299;28;20383;-62
2023/02/16 19:01:28;;;;;;;12.32;6.32;;;;;;;;;;21084428;28;20052;-62
2023/02/16 19:11:31;;;;;;;13.00;6.25;;;;;;;;;;21083047;28;20554;-62
2023/02/16 19:21:34;;;;;;;7.82;4.25;;;;;;;;;;21082295;28;20142;-61
2023/02/16 19:31:36;;;;;;;8.45;3.50;;;;;;;;;;21080702;28;20048;-62
2023/02/16 19:41:40;;;;;;;9.98;3.25;;;;;;;;;;21079781;28;20541;-61
2023/02/16 19:51:42;;;;;;;8.65;3.42;;;;;;;;;;21080392;28;20059;-61
2023/02/16 20:01:44;;;;;;;8.63;3.00;;;;;;;;;;21079855;28;20157;-63
2023/02/16 20:11:46;;;;;;;9.40;4.38;;;;;;;;;;21079615;28;20044;-63
2023/02/16 20:21:49;;;;;;;13.30;6.07;;;;;;;;;;21078288;28;20052;-62
2023/02/16 20:31:52;;;;;;;19.67;9.68;;;;;;;;;;21078527;28;20450;-62
2023/02/16 20:41:54;;;;;;;18.00;9.20;;;;;;;;;;21087603;28;20409;-61
2023/02/16 20:51:56;;;;;;;12.63;7.55;;;;;;;;;;21093379;28;20511;-61
2023/02/16 21:01:58;;;;;;;13.85;7.00;;;;;;;;;;21092375;28;20183;-62
2023/02/16 21:12:00;;;;;;;12.82;5.90;;;;;;;;;;21091871;28;20075;-62
2023/02/16 21:22:02;;;;;;;12.00;6.47;;;;;;;;;;21091236;28;20051;-61
2023/02/16 21:32:04;;;;;;;11.80;6.25;;;;;;;;;;21091303;28;20478;-61
2023/02/16 21:42:06;;;;;;;9.18;4.75;;;;;;;;;;21088364;28;20052;-61
2023/02/16 21:52:08;;;;;;;23.33;10.63;;;;;;;;;;21088806;28;20048;-60
2023/02/16 22:02:10;;;;;;;25.10;10.73;;;;;;;;;;21088055;28;20441;-61
2023/02/16 22:12:13;;;;;;;15.93;7.72;;;;;;;;;;21086249;28;20048;-61
2023/02/16 22:22:14;;;;;;;21.00;8.63;;;;;;;;;;21085628;28;20048;-62
2023/02/16 22:32:17;;;;;;;11.43;5.78;;;;;;;;;;21084927;28;20062;-61
2023/02/16 22:42:19;;;;;;;9.48;5.30;;;;;;;;;;21083757;28;20048;-62
2023/02/16 22:52:21;;;;;;;21.92;9.93;;;;;;;;;;21084911;28;20584;-61
2023/02/16 23:02:23;;;;;;;14.85;6.15;;;;;;;;;;21082649;28;20056;-61
2023/02/16 23:12:25;;;;;;;10.05;4.20;;;;;;;;;;21083488;28;20047;-62
2023/02/16 23:22:30;;;;;;;7.43;3.13;;;;;;;;;;21082380;28;20052;-62
2023/02/16 23:32:33;;;;;;;7.32;3.10;;;;;;;;;;21081743;28;20043;-61
2023/02/16 23:42:35;;;;;;;5.70;3.17;;;;;;;;;;21079705;28;20493;-61
2023/02/16 23:52:38;;;;;;;9.80;4.88;;;;;;;;;;21079249;28;20082;-61
